createdAt,value
2022-12-11T00:01:45.377Z,9.40
2022-12-11T00:04:16.371Z,7.90
2022-12-11T00:06:50.454Z,9.30
2022-12-11T00:09:22.721Z,9.60
2022-12-11T00:11:53.914Z,8.30
2022-12-11T00:14:25.267Z,8.80
2022-12-11T00:19:26.127Z,6.10
2022-12-11T00:21:57.581Z,7.90
2022-12-11T00:24:28.665Z,8.40
2022-12-11T00:26:59.706Z,8.80
2022-12-11T00:32:00.642Z,9.30
2022-12-11T00:37:02.200Z,7.40
2022-12-11T00:39:33.464Z,8.10
2022-12-11T00:42:04.618Z,8.10
2022-12-11T00:44:36.192Z,8.60
2022-12-11T00:47:07.414Z,8.70
2022-12-11T00:49:38.308Z,9.30
2022-12-11T00:52:10.993Z,9.00
2022-12-11T00:54:41.903Z,9.40
2022-12-11T00:57:12.955Z,8.70
2022-12-11T00:59:44.102Z,8.80
2022-12-11T01:04:45.379Z,8.10
2022-12-11T01:07:16.356Z,7.90
2022-12-11T01:10:05.189Z,8.00
2022-12-11T01:12:39.501Z,8.20
2022-12-11T01:15:12.493Z,8.10
2022-12-11T01:17:43.650Z,8.10
2022-12-11T01:20:15.217Z,8.40
2022-12-11T01:25:16.324Z,7.20
2022-12-11T01:27:48.046Z,8.60
2022-12-11T01:32:49.192Z,7.10
2022-12-11T01:35:21.054Z,7.50
2022-12-11T01:37:52.038Z,7.90
2022-12-11T01:40:23.871Z,6.90
2022-12-11T01:42:54.870Z,7.00
2022-12-11T01:45:44.852Z,6.60
2022-12-11T01:48:19.902Z,8.10
2022-12-11T01:50:54.589Z,7.30
2022-12-11T01:53:29.183Z,6.60
2022-12-11T01:56:01.748Z,7.00
2022-12-11T01:58:36.471Z,7.40
2022-12-11T02:01:08.161Z,6.80
2022-12-11T02:03:39.263Z,6.20
2022-12-11T02:06:34.960Z,7.30
2022-12-11T02:09:08.567Z,8.00
2022-12-11T02:11:48.866Z,6.70
2022-12-11T02:14:29.793Z,7.80
2022-12-11T02:17:06.632Z,6.60
2022-12-11T02:19:57.242Z,6.40
2022-12-11T02:22:39.990Z,5.50
2022-12-11T02:25:20.274Z,6.70
2022-12-11T02:27:56.757Z,7.80
2022-12-11T02:30:28.063Z,5.80
2022-12-11T02:33:01.799Z,6.60
2022-12-11T02:35:39.063Z,7.20
2022-12-11T02:38:14.578Z,7.10
2022-12-11T02:40:50.015Z,7.80
2022-12-11T02:43:23.522Z,6.50
2022-12-11T02:45:55.369Z,6.70
2022-12-11T02:48:27.127Z,6.80
2022-12-11T02:51:00.702Z,7.20
2022-12-11T02:53:36.816Z,6.80
2022-12-11T02:56:14.168Z,7.80
2022-12-11T02:58:52.760Z,7.60
2022-12-11T03:01:28.559Z,8.30
2022-12-11T03:04:00.805Z,7.10
2022-12-11T03:06:37.380Z,7.60
2022-12-11T03:09:08.686Z,6.90
2022-12-11T03:11:39.632Z,7.20
2022-12-11T03:14:11.500Z,6.50
2022-12-11T03:16:51.722Z,7.20
2022-12-11T03:19:32.243Z,6.60
2022-12-11T03:22:10.659Z,6.90
2022-12-11T03:24:46.888Z,7.40
2022-12-11T03:27:25.935Z,8.30
2022-12-11T03:30:00.483Z,7.60
2022-12-11T03:32:37.843Z,7.60
2022-12-11T03:35:15.134Z,7.80
2022-12-11T03:37:49.132Z,7.90
2022-12-11T03:40:23.350Z,8.10
2022-12-11T03:42:57.118Z,7.00
2022-12-11T03:45:30.701Z,7.70
2022-12-11T03:48:03.788Z,7.70
2022-12-11T03:50:36.655Z,7.10
2022-12-11T03:53:08.234Z,8.30
2022-12-11T03:55:40.834Z,7.80
2022-12-11T03:58:11.964Z,6.60
2022-12-11T04:00:43.046Z,8.00
2022-12-11T04:03:14.535Z,7.80
2022-12-11T04:05:51.171Z,8.10
2022-12-11T04:08:23.314Z,8.00
2022-12-11T04:11:15.124Z,7.80
2022-12-11T04:13:46.105Z,8.30
2022-12-11T04:16:17.140Z,7.80
2022-12-11T04:19:05.744Z,8.70
2022-12-11T04:21:54.423Z,7.60
2022-12-11T04:24:25.591Z,7.50
2022-12-11T04:26:56.491Z,9.00
2022-12-11T04:29:27.616Z,9.60
2022-12-11T04:31:58.939Z,7.70
2022-12-11T04:34:30.287Z,8.30
2022-12-11T04:37:01.488Z,7.00
2022-12-11T04:39:32.386Z,7.90
2022-12-11T04:42:03.268Z,8.40
2022-12-11T04:44:34.768Z,8.10
2022-12-11T04:47:05.793Z,7.80
2022-12-11T04:49:36.517Z,8.30
2022-12-11T04:52:07.802Z,7.30
2022-12-11T04:54:39.345Z,8.10
2022-12-11T04:57:10.577Z,7.80
2022-12-11T04:59:41.714Z,9.60
2022-12-11T05:02:13.025Z,8.70
2022-12-11T05:04:44.815Z,7.70
2022-12-11T05:07:15.715Z,7.70
2022-12-11T05:09:46.988Z,8.00
2022-12-11T05:12:18.212Z,7.50
2022-12-11T05:14:52.295Z,7.80
2022-12-11T05:17:23.485Z,10.20
2022-12-11T05:19:54.836Z,8.40
2022-12-11T05:22:25.760Z,7.80
2022-12-11T05:24:56.712Z,7.70
2022-12-11T05:27:27.977Z,8.70
2022-12-11T05:29:59.735Z,9.10
2022-12-11T05:32:31.160Z,7.40
2022-12-11T05:35:02.000Z,8.40
2022-12-11T05:37:35.695Z,7.50
2022-12-11T05:40:07.599Z,8.30
2022-12-11T05:42:38.509Z,7.90
2022-12-11T05:45:11.297Z,6.90
2022-12-11T05:47:42.461Z,8.40
2022-12-11T05:50:13.697Z,9.10
2022-12-11T05:52:44.924Z,8.70
2022-12-11T05:55:15.925Z,8.10
2022-12-11T05:57:46.902Z,8.20
2022-12-11T06:00:18.061Z,9.70
2022-12-11T06:02:49.292Z,9.30
2022-12-11T06:05:20.490Z,11.50
2022-12-11T06:07:51.593Z,10.90
2022-12-11T06:10:22.773Z,9.40
2022-12-11T06:12:53.803Z,11.80
2022-12-11T06:15:24.938Z,10.70
2022-12-11T06:17:56.411Z,8.50
2022-12-11T06:20:27.488Z,9.10
2022-12-11T06:22:58.735Z,10.50
2022-12-11T06:25:30.608Z,8.50
2022-12-11T06:28:02.113Z,18.30
2022-12-11T06:33:10.665Z,19.80
2022-12-11T06:38:14.069Z,13.10
2022-12-11T06:40:45.520Z,10.70
2022-12-11T06:45:46.176Z,10.80
2022-12-11T06:48:17.651Z,8.30
2022-12-11T06:50:48.686Z,9.10
2022-12-11T06:53:19.810Z,7.70
2022-12-11T06:55:51.127Z,6.40
2022-12-11T07:00:51.560Z,5.90
2022-12-11T07:03:22.644Z,6.80
2022-12-11T07:05:53.829Z,6.90
2022-12-11T07:08:24.890Z,7.60
2022-12-11T07:10:55.822Z,8.30
2022-12-11T07:13:26.935Z,7.30
2022-12-11T07:16:02.030Z,7.80
2022-12-11T07:18:33.522Z,7.60
2022-12-11T07:21:04.748Z,11.00
2022-12-11T07:23:36.807Z,12.10
2022-12-11T07:26:12.486Z,8.50
2022-12-11T07:28:44.077Z,7.90
2022-12-11T07:31:17.366Z,8.00
2022-12-11T07:33:48.690Z,7.90
2022-12-11T07:36:19.769Z,9.00
2022-12-11T07:38:50.953Z,10.20
2022-12-11T07:41:23.223Z,19.50
2022-12-11T07:43:54.247Z,26.60
2022-12-11T07:46:27.874Z,15.60
2022-12-11T07:49:01.051Z,10.90
2022-12-11T07:51:35.543Z,13.70
2022-12-11T07:54:10.745Z,15.50
2022-12-11T07:56:43.947Z,14.50
2022-12-11T07:59:16.734Z,17.50
2022-12-11T08:01:47.841Z,11.40
2022-12-11T08:04:18.989Z,19.70
2022-12-11T08:06:49.958Z,14.50
2022-12-11T08:09:22.813Z,14.30
2022-12-11T08:11:54.625Z,16.10
2022-12-11T08:14:25.648Z,16.40
2022-12-11T08:16:57.572Z,12.50
2022-12-11T08:19:29.327Z,16.90
2022-12-11T08:22:00.343Z,23.80
2022-12-11T08:24:31.715Z,14.80
2022-12-11T08:29:32.446Z,12.40
2022-12-11T08:32:06.404Z,5.70
2022-12-11T08:34:41.804Z,7.80
2022-12-11T08:37:13.754Z,9.90
2022-12-11T08:39:47.010Z,7.40
2022-12-11T08:42:18.175Z,8.40
2022-12-11T08:44:49.156Z,15.50
2022-12-11T08:47:20.168Z,17.30
2022-12-11T08:49:51.521Z,10.70
2022-12-11T08:52:23.108Z,9.20
2022-12-11T08:54:54.669Z,17.40
2022-12-11T08:57:25.667Z,16.50
2022-12-11T08:59:56.872Z,7.60
2022-12-11T09:02:28.333Z,9.20
2022-12-11T09:07:28.811Z,4.60
2022-12-11T09:09:59.706Z,4.50
2022-12-11T09:12:31.269Z,7.10
2022-12-11T09:17:31.732Z,6.30
2022-12-11T09:20:02.927Z,6.60
2022-12-11T09:22:34.677Z,4.80
2022-12-11T09:25:06.105Z,5.80
2022-12-11T09:30:09.518Z,7.20
2022-12-11T09:32:40.992Z,5.30
2022-12-11T09:35:12.968Z,5.20
2022-12-11T09:37:44.262Z,5.30
2022-12-11T09:40:16.260Z,3.90
2022-12-11T09:42:55.670Z,8.60
2022-12-11T09:45:27.066Z,4.30
2022-12-11T09:47:59.402Z,4.90
2022-12-11T09:50:32.998Z,5.10
2022-12-11T09:53:12.641Z,3.50
2022-12-11T09:55:51.187Z,4.70
2022-12-11T09:58:30.787Z,4.10
2022-12-11T10:01:10.081Z,4.30
2022-12-11T10:04:08.450Z,3.60
2022-12-11T10:06:44.272Z,4.00
2022-12-11T10:09:21.082Z,4.40
2022-12-11T10:12:06.649Z,3.30
2022-12-11T10:14:54.328Z,4.90
2022-12-11T10:17:29.706Z,9.90
2022-12-11T10:20:09.035Z,6.30
2022-12-11T10:22:40.171Z,5.00
2022-12-11T10:25:23.078Z,4.70
2022-12-11T10:27:54.127Z,3.90
2022-12-11T10:30:30.463Z,3.10
2022-12-11T10:33:15.753Z,9.70
2022-12-11T10:35:49.615Z,6.00
2022-12-11T10:38:27.617Z,4.60
2022-12-11T10:41:01.929Z,4.90
2022-12-11T10:43:37.615Z,3.90
2022-12-11T10:46:16.450Z,3.60
2022-12-11T10:48:53.303Z,4.80
2022-12-11T10:51:26.118Z,3.40
2022-12-11T10:54:07.958Z,5.30
2022-12-11T10:56:40.404Z,4.60
2022-12-11T10:59:24.410Z,4.80
2022-12-11T11:01:56.404Z,4.30
2022-12-11T11:04:33.107Z,4.60
2022-12-11T11:07:14.912Z,4.00
2022-12-11T11:09:46.164Z,2.90
2022-12-11T11:12:27.335Z,4.00
2022-12-11T11:15:06.953Z,4.10
2022-12-11T11:17:54.256Z,3.20
2022-12-11T11:20:28.481Z,6.30
2022-12-11T11:23:01.865Z,4.20
2022-12-11T11:25:34.922Z,3.40
2022-12-11T11:28:08.059Z,3.60
2022-12-11T11:30:42.690Z,5.30
2022-12-11T11:33:19.262Z,3.50
2022-12-11T11:35:57.705Z,4.00
2022-12-11T11:38:32.929Z,5.20
2022-12-11T11:41:15.127Z,5.40
2022-12-11T11:43:49.093Z,9.70
2022-12-11T11:46:27.742Z,13.10
2022-12-11T11:49:08.767Z,12.80
2022-12-11T11:51:44.587Z,6.80
2022-12-11T11:54:26.436Z,8.50
2022-12-11T11:57:00.189Z,16.60
2022-12-11T11:59:37.550Z,6.20
2022-12-11T12:02:17.700Z,6.00
2022-12-11T12:04:51.378Z,17.90
2022-12-11T12:07:34.804Z,7.30
2022-12-11T12:10:16.124Z,9.20
2022-12-11T12:12:55.457Z,6.60
2022-12-11T12:15:37.863Z,5.10
2022-12-11T12:18:21.310Z,6.80
2022-12-11T12:21:03.647Z,5.80
2022-12-11T12:23:57.170Z,8.90
2022-12-11T12:26:30.694Z,8.20
2022-12-11T12:29:12.410Z,14.30
2022-12-11T12:32:01.319Z,6.70
2022-12-11T12:34:46.052Z,12.60
2022-12-11T12:37:26.245Z,11.30
2022-12-11T12:40:09.631Z,7.00
2022-12-11T12:42:50.266Z,5.30
2022-12-11T12:45:30.598Z,9.40
2022-12-11T12:48:03.077Z,4.20
2022-12-11T12:50:43.130Z,6.50
2022-12-11T12:53:18.671Z,7.20
2022-12-11T12:55:51.464Z,4.90
2022-12-11T12:58:40.822Z,7.50
2022-12-11T13:01:16.396Z,12.80
2022-12-11T13:03:57.484Z,11.40
2022-12-11T13:06:38.271Z,11.90
2022-12-11T13:09:19.790Z,7.10
2022-12-11T13:11:54.598Z,10.10
2022-12-11T13:14:30.336Z,9.30
2022-12-11T13:17:27.540Z,11.30
2022-12-11T13:20:19.091Z,11.90
2022-12-11T13:22:57.404Z,11.10
2022-12-11T13:25:34.392Z,7.60
2022-12-11T13:28:21.900Z,5.40
2022-12-11T13:31:30.110Z,8.10
2022-12-11T13:34:15.237Z,8.30
2022-12-11T13:36:49.856Z,12.90
2022-12-11T13:39:24.089Z,17.70
2022-12-11T13:41:58.754Z,9.20
2022-12-11T13:44:32.972Z,8.20
2022-12-11T13:47:07.199Z,10.60
2022-12-11T13:49:41.772Z,8.20
2022-12-11T13:52:22.319Z,20.80
2022-12-11T13:54:55.835Z,12.70
2022-12-11T13:57:28.541Z,12.50
2022-12-11T14:00:00.990Z,11.30
2022-12-11T14:02:35.199Z,11.60
2022-12-11T14:05:11.162Z,9.90
2022-12-11T14:07:48.068Z,9.80
2022-12-11T14:10:22.117Z,12.20
2022-12-11T14:12:58.377Z,6.60
2022-12-11T14:15:31.959Z,7.80
2022-12-11T14:18:05.464Z,7.70
2022-12-11T14:20:37.154Z,7.10
2022-12-11T14:23:16.208Z,6.90
2022-12-11T14:25:55.613Z,9.00
2022-12-11T14:28:28.558Z,10.60
2022-12-11T14:31:02.763Z,8.20
2022-12-11T14:33:38.294Z,17.30
2022-12-11T14:36:11.037Z,12.60
2022-12-11T14:38:47.594Z,8.20
2022-12-11T14:41:22.818Z,14.00
2022-12-11T14:43:58.274Z,12.10
2022-12-11T14:46:38.419Z,11.00
2022-12-11T14:49:18.323Z,11.90
2022-12-11T14:51:50.394Z,7.00
2022-12-11T14:54:32.847Z,9.90
2022-12-11T14:57:07.171Z,10.80
2022-12-11T14:59:45.735Z,11.90
2022-12-11T15:02:30.104Z,9.50
2022-12-11T15:05:12.209Z,8.10
2022-12-11T15:07:45.172Z,12.50
2022-12-11T15:10:31.380Z,8.20
2022-12-11T15:13:02.709Z,7.90
2022-12-11T15:15:47.629Z,6.90
2022-12-11T15:18:23.234Z,11.80
2022-12-11T15:20:57.714Z,9.60
2022-12-11T15:23:28.854Z,7.20
2022-12-11T15:26:02.957Z,6.80
2022-12-11T15:28:36.746Z,8.40
2022-12-11T15:31:25.079Z,7.60
2022-12-11T15:33:56.609Z,8.00
2022-12-11T15:38:58.736Z,8.30
2022-12-11T15:41:33.347Z,6.90
2022-12-11T15:44:05.880Z,9.50
2022-12-11T15:46:39.395Z,10.20
2022-12-11T15:49:14.305Z,12.60
2022-12-11T15:51:45.381Z,11.20
2022-12-11T15:54:16.454Z,9.60
2022-12-11T15:56:47.487Z,7.80
2022-12-11T15:59:19.191Z,9.90
2022-12-11T16:01:50.181Z,6.60
2022-12-11T16:04:21.225Z,6.30
2022-12-11T16:06:55.301Z,11.50
2022-12-11T16:09:26.467Z,8.70
2022-12-11T16:11:57.542Z,10.10
2022-12-11T16:14:28.789Z,13.00
2022-12-11T16:16:59.830Z,8.40
2022-12-11T16:19:30.919Z,8.90
2022-12-11T16:22:02.384Z,8.70
2022-12-11T16:24:33.587Z,8.10
2022-12-11T16:27:05.996Z,7.50
2022-12-11T16:29:38.735Z,7.40
2022-12-11T16:32:10.146Z,11.60
2022-12-11T16:34:41.233Z,8.40
2022-12-11T16:37:13.061Z,7.80
2022-12-11T16:39:46.062Z,19.10
2022-12-11T16:42:17.019Z,10.90
2022-12-11T16:44:48.510Z,10.70
2022-12-11T16:47:19.745Z,8.30
2022-12-11T16:49:50.768Z,8.50
2022-12-11T16:52:22.442Z,9.50
2022-12-11T16:54:53.578Z,8.80
2022-12-11T16:57:24.775Z,8.10
2022-12-11T16:59:55.868Z,11.40
2022-12-11T17:02:26.986Z,18.20
2022-12-11T17:04:58.146Z,8.80
2022-12-11T17:07:29.152Z,11.80
2022-12-11T17:10:00.916Z,9.70
2022-12-11T17:12:32.021Z,10.40
2022-12-11T17:15:03.072Z,7.90
2022-12-11T17:17:34.522Z,6.80
2022-12-11T17:20:06.178Z,10.40
2022-12-11T17:22:37.780Z,7.00
2022-12-11T17:25:09.932Z,9.90
2022-12-11T17:27:40.998Z,9.40
2022-12-11T17:30:14.308Z,11.80
2022-12-11T17:32:47.839Z,6.70
2022-12-11T17:35:19.274Z,6.60
2022-12-11T17:37:50.610Z,5.80
2022-12-11T17:40:23.055Z,6.50
2022-12-11T17:42:53.929Z,5.10
2022-12-11T17:45:24.948Z,5.10
2022-12-11T17:47:56.374Z,6.10
2022-12-11T17:50:29.559Z,7.80
2022-12-11T17:53:00.750Z,5.70
2022-12-11T17:55:31.723Z,5.90
2022-12-11T17:58:02.839Z,7.80
2022-12-11T18:00:34.080Z,11.30
2022-12-11T18:03:05.129Z,11.90
2022-12-11T18:05:37.282Z,8.90
2022-12-11T18:08:08.948Z,7.10
2022-12-11T18:10:39.944Z,7.30
2022-12-11T18:13:11.358Z,7.20
2022-12-11T18:15:42.527Z,9.90
2022-12-11T18:18:13.813Z,7.30
2022-12-11T18:20:44.786Z,13.20
2022-12-11T18:23:15.725Z,9.40
2022-12-11T18:25:47.035Z,8.10
2022-12-11T18:28:18.339Z,16.30
2022-12-11T18:30:49.966Z,13.40
2022-12-11T18:35:51.742Z,11.90
2022-12-11T18:38:22.929Z,12.10
2022-12-11T18:40:53.978Z,6.20
2022-12-11T18:43:24.763Z,6.50
2022-12-11T18:45:55.623Z,9.00
2022-12-11T18:48:26.401Z,6.50
2022-12-11T18:50:57.609Z,5.70
2022-12-11T18:53:28.892Z,5.30
2022-12-11T18:56:00.742Z,4.70
2022-12-11T18:58:31.900Z,6.80
2022-12-11T19:01:09.023Z,7.00
2022-12-11T19:03:40.380Z,6.20
2022-12-11T19:06:14.872Z,4.90
2022-12-11T19:08:46.382Z,6.10
2022-12-11T19:11:18.770Z,4.20
2022-12-11T19:13:50.173Z,6.40
2022-12-11T19:16:22.929Z,8.80
2022-12-11T19:18:54.184Z,8.40
2022-12-11T19:21:25.379Z,5.90
2022-12-11T19:23:57.291Z,4.20
2022-12-11T19:26:28.847Z,5.30
2022-12-11T19:29:00.361Z,4.00
2022-12-11T19:31:33.715Z,3.30
2022-12-11T19:34:05.081Z,3.30
2022-12-11T19:36:37.298Z,5.30
2022-12-11T19:39:12.978Z,5.20
2022-12-11T19:41:45.142Z,5.60
2022-12-11T19:46:45.851Z,4.20
2022-12-11T19:49:17.151Z,4.80
2022-12-11T19:51:48.584Z,3.70
2022-12-11T19:54:20.643Z,5.10
2022-12-11T19:56:52.405Z,5.30
2022-12-11T19:59:23.350Z,5.80
2022-12-11T20:01:54.423Z,3.80
2022-12-11T20:04:25.463Z,5.00
2022-12-11T20:06:56.745Z,5.90
2022-12-11T20:09:28.325Z,5.30
2022-12-11T20:14:29.126Z,4.40
2022-12-11T20:17:15.752Z,6.50
2022-12-11T20:19:46.967Z,7.60
2022-12-11T20:22:17.844Z,7.10
2022-12-11T20:24:48.712Z,4.20
2022-12-11T20:27:19.883Z,6.80
2022-12-11T20:29:50.949Z,7.00
2022-12-11T20:32:25.835Z,7.40
2022-12-11T20:34:59.163Z,7.30
2022-12-11T20:37:30.120Z,7.20
2022-12-11T20:40:05.077Z,4.90
2022-12-11T20:42:36.641Z,8.10
2022-12-11T20:47:38.045Z,4.80
2022-12-11T20:50:11.179Z,6.10
2022-12-11T20:52:42.225Z,6.10
2022-12-11T20:55:13.935Z,5.40
2022-12-11T20:57:45.535Z,6.50
2022-12-11T21:00:20.137Z,8.10
2022-12-11T21:02:52.380Z,8.00
2022-12-11T21:05:24.005Z,9.20
2022-12-11T21:07:57.311Z,7.80
2022-12-11T21:10:28.402Z,7.30
2022-12-11T21:12:59.346Z,8.50
2022-12-11T21:15:30.625Z,7.40
2022-12-11T21:18:01.701Z,9.90
2022-12-11T21:20:32.573Z,8.60
2022-12-11T21:23:04.253Z,8.70
2022-12-11T21:28:05.713Z,6.30
2022-12-11T21:30:40.090Z,6.60
2022-12-11T21:33:11.269Z,10.40
2022-12-11T21:35:42.378Z,6.50
2022-12-11T21:38:13.708Z,5.70
2022-12-11T21:40:44.573Z,5.00
2022-12-11T21:43:15.517Z,5.80
2022-12-11T21:46:02.486Z,6.00
2022-12-11T21:48:33.829Z,5.10
2022-12-11T21:51:10.781Z,5.40
2022-12-11T21:53:43.714Z,5.90
2022-12-11T21:56:18.065Z,5.40
2022-12-11T21:58:50.647Z,5.90
2022-12-11T22:01:24.576Z,5.80
2022-12-11T22:03:56.234Z,6.00
2022-12-11T22:06:27.002Z,6.50
2022-12-11T22:08:58.129Z,6.80
2022-12-11T22:11:31.447Z,7.80
2022-12-11T22:14:02.728Z,7.10
2022-12-11T22:16:34.160Z,7.90
2022-12-11T22:19:05.122Z,7.20
2022-12-11T22:21:36.534Z,6.40
2022-12-11T22:24:08.282Z,5.60
2022-12-11T22:26:40.116Z,6.10
2022-12-11T22:29:11.218Z,5.60
2022-12-11T22:31:42.260Z,6.20
2022-12-11T22:34:13.150Z,5.60
2022-12-11T22:36:44.484Z,7.10
2022-12-11T22:39:15.541Z,5.70
2022-12-11T22:41:46.708Z,6.00
2022-12-11T22:44:20.070Z,6.50
2022-12-11T22:46:51.297Z,7.20
2022-12-11T22:49:22.329Z,9.40
2022-12-11T22:51:53.331Z,7.00
2022-12-11T22:54:24.615Z,7.60
2022-12-11T22:56:55.938Z,5.20
2022-12-11T22:59:27.521Z,6.60
2022-12-11T23:01:58.448Z,6.30
2022-12-11T23:04:29.322Z,8.00
2022-12-11T23:07:00.527Z,5.80
2022-12-11T23:09:31.538Z,6.20
2022-12-11T23:12:02.996Z,7.70
2022-12-11T23:14:33.907Z,6.90
2022-12-11T23:17:05.031Z,7.50
2022-12-11T23:19:36.397Z,6.30
2022-12-11T23:22:07.426Z,6.80
2022-12-11T23:24:38.627Z,5.90
2022-12-11T23:27:09.734Z,8.20
2022-12-11T23:29:40.757Z,6.60
2022-12-11T23:32:11.815Z,5.30
2022-12-11T23:34:42.671Z,5.00
2022-12-11T23:37:14.146Z,5.50
2022-12-11T23:39:45.079Z,6.30
2022-12-11T23:42:16.227Z,6.50
2022-12-11T23:44:47.705Z,6.40
2022-12-11T23:47:18.660Z,5.90
2022-12-11T23:49:49.648Z,6.80
2022-12-11T23:52:22.671Z,6.70
2022-12-11T23:54:55.374Z,7.10
2022-12-11T23:57:26.384Z,5.50
2022-12-11T23:59:57.647Z,5.80
